sensor_id;sensor_type;location;lat;lon;timestamp;P1;durP1;ratioP1;P2;durP2;ratioP2
21780;SDS011;52576;53.614;9.894;2022-10-16T00:00:30;11.93;;;8.70;;
21780;SDS011;52576;53.614;9.894;2022-10-16T00:01:33;12.02;;;8.77;;
21780;SDS011;52576;53.614;9.894;2022-10-16T00:02:36;12.88;;;9.05;;
21780;SDS011;52576;53.614;9.894;2022-10-16T00:03:38;13.13;;;9.10;;
21780;SDS011;52576;53.614;9.894;2022-10-16T00:04:42;15.75;;;9.27;;
21780;SDS011;52576;53.614;9.894;2022-10-16T00:05:44;13.48;;;8.70;;
21780;SDS011;52576;53.614;9.894;2022-10-16T00:06:47;10.52;;;7.80;;
21780;SDS011;52576;53.614;9.894;2022-10-16T00:07:49;13.27;;;8.50;;
21780;SDS011;52576;53.614;9.894;2022-10-16T00:08:52;11.15;;;7.75;;
21780;SDS011;52576;53.614;9.894;2022-10-16T00:09:55;11.68;;;7.90;;
21780;SDS011;52576;53.614;9.894;2022-10-16T00:11:01;12.90;;;8.10;;
21780;SDS011;52576;53.614;9.894;2022-10-16T00:12:04;17.38;;;8.63;;
21780;SDS011;52576;53.614;9.894;2022-10-16T00:13:08;12.00;;;8.32;;
21780;SDS011;52576;53.614;9.894;2022-10-16T00:14:11;9.73;;;7.53;;
21780;SDS011;52576;53.614;9.894;2022-10-16T00:15:15;12.35;;;7.68;;
21780;SDS011;52576;53.614;9.894;2022-10-16T00:16:18;13.40;;;7.65;;
21780;SDS011;52576;53.614;9.894;2022-10-16T00:17:21;12.50;;;7.50;;
21780;SDS011;52576;53.614;9.894;2022-10-16T00:18:23;9.82;;;7.20;;
21780;SDS011;52576;53.614;9.894;2022-10-16T00:19:26;10.55;;;7.00;;
21780;SDS011;52576;53.614;9.894;2022-10-16T00:20:29;10.13;;;6.38;;
21780;SDS011;52576;53.614;9.894;2022-10-16T00:21:51;13.43;;;7.68;;
21780;SDS011;52576;53.614;9.894;2022-10-16T00:23:12;10.02;;;6.25;;
21780;SDS011;52576;53.614;9.894;2022-10-16T00:24:14;11.30;;;6.47;;
21780;SDS011;52576;53.614;9.894;2022-10-16T00:25:17;11.25;;;6.00;;
21780;SDS011;52576;53.614;9.894;2022-10-16T00:26:21;9.55;;;5.93;;
21780;SDS011;52576;53.614;9.894;2022-10-16T00:27:24;11.45;;;5.72;;
21780;SDS011;52576;53.614;9.894;2022-10-16T00:28:26;12.05;;;5.50;;
21780;SDS011;52576;53.614;9.894;2022-10-16T00:29:30;10.48;;;5.18;;
21780;SDS011;52576;53.614;9.894;2022-10-16T00:30:32;12.52;;;6.95;;
21780;SDS011;52576;53.614;9.894;2022-10-16T00:31:35;14.95;;;5.07;;
21780;SDS011;52576;53.614;9.894;2022-10-16T00:32:37;9.63;;;4.93;;
21780;SDS011;52576;53.614;9.894;2022-10-16T00:33:40;10.57;;;4.88;;
21780;SDS011;52576;53.614;9.894;2022-10-16T00:34:42;10.32;;;4.97;;
21780;SDS011;52576;53.614;9.894;2022-10-16T00:35:45;9.30;;;4.63;;
21780;SDS011;52576;53.614;9.894;2022-10-16T00:36:48;8.20;;;4.38;;
21780;SDS011;52576;53.614;9.894;2022-10-16T00:37:51;9.48;;;4.43;;
21780;SDS011;52576;53.614;9.894;2022-10-16T00:38:53;14.25;;;5.07;;
21780;SDS011;52576;53.614;9.894;2022-10-16T00:39:58;7.88;;;4.53;;
21780;SDS011;52576;53.614;9.894;2022-10-16T00:41:00;6.57;;;4.20;;
21780;SDS011;52576;53.614;9.894;2022-10-16T00:42:05;7.63;;;4.30;;
21780;SDS011;52576;53.614;9.894;2022-10-16T00:43:10;8.82;;;4.13;;
21780;SDS011;52576;53.614;9.894;2022-10-16T00:45:44;9.57;;;3.75;;
21780;SDS011;52576;53.614;9.894;2022-10-16T00:46:47;7.60;;;4.15;;
21780;SDS011;52576;53.614;9.894;2022-10-16T00:47:50;8.00;;;4.28;;
21780;SDS011;52576;53.614;9.894;2022-10-16T00:48:55;12.25;;;4.10;;
21780;SDS011;52576;53.614;9.894;2022-10-16T00:50:02;8.85;;;3.60;;
21780;SDS011;52576;53.614;9.894;2022-10-16T00:51:10;6.75;;;4.10;;
21780;SDS011;52576;53.614;9.894;2022-10-16T00:52:12;7.75;;;3.67;;
21780;SDS011;52576;53.614;9.894;2022-10-16T00:53:17;7.95;;;3.88;;
21780;SDS011;52576;53.614;9.894;2022-10-16T00:54:21;9.40;;;4.05;;
21780;SDS011;52576;53.614;9.894;2022-10-16T00:55:25;10.77;;;4.28;;
21780;SDS011;52576;53.614;9.894;2022-10-16T00:56:29;7.53;;;3.70;;
21780;SDS011;52576;53.614;9.894;2022-10-16T00:57:33;10.45;;;3.42;;
21780;SDS011;52576;53.614;9.894;2022-10-16T00:58:35;7.07;;;3.58;;
21780;SDS011;52576;53.614;9.894;2022-10-16T00:59:39;9.25;;;3.35;;
21780;SDS011;52576;53.614;9.894;2022-10-16T01:00:42;9.75;;;3.50;;
21780;SDS011;52576;53.614;9.894;2022-10-16T01:01:45;5.60;;;3.65;;
21780;SDS011;52576;53.614;9.894;2022-10-16T01:02:51;7.80;;;3.55;;
21780;SDS011;52576;53.614;9.894;2022-10-16T01:03:55;7.93;;;3.30;;
21780;SDS011;52576;53.614;9.894;2022-10-16T01:04:57;7.82;;;3.25;;
21780;SDS011;52576;53.614;9.894;2022-10-16T01:06:04;8.60;;;3.42;;
21780;SDS011;52576;53.614;9.894;2022-10-16T01:07:25;8.43;;;3.10;;
21780;SDS011;52576;53.614;9.894;2022-10-16T01:08:39;7.22;;;2.95;;
21780;SDS011;52576;53.614;9.894;2022-10-16T01:09:51;7.07;;;3.17;;
21780;SDS011;52576;53.614;9.894;2022-10-16T01:11:05;10.25;;;3.65;;
21780;SDS011;52576;53.614;9.894;2022-10-16T01:12:14;6.45;;;3.15;;
21780;SDS011;52576;53.614;9.894;2022-10-16T01:13:24;6.35;;;3.45;;
21780;SDS011;52576;53.614;9.894;2022-10-16T01:14:34;8.35;;;3.05;;
21780;SDS011;52576;53.614;9.894;2022-10-16T01:16:49;7.40;;;2.90;;
21780;SDS011;52576;53.614;9.894;2022-10-16T01:17:58;6.80;;;2.83;;
21780;SDS011;52576;53.614;9.894;2022-10-16T01:19:06;6.43;;;3.08;;
21780;SDS011;52576;53.614;9.894;2022-10-16T01:20:17;5.82;;;3.05;;
21780;SDS011;52576;53.614;9.894;2022-10-16T01:21:26;5.97;;;3.00;;
21780;SDS011;52576;53.614;9.894;2022-10-16T01:22:35;10.05;;;3.13;;
21780;SDS011;52576;53.614;9.894;2022-10-16T01:23:43;6.22;;;2.80;;
21780;SDS011;52576;53.614;9.894;2022-10-16T01:24:54;5.25;;;2.92;;
21780;SDS011;52576;53.614;9.894;2022-10-16T01:27:35;11.52;;;2.97;;
21780;SDS011;52576;53.614;9.894;2022-10-16T01:28:41;8.57;;;3.00;;
21780;SDS011;52576;53.614;9.894;2022-10-16T01:29:51;5.95;;;2.80;;
21780;SDS011;52576;53.614;9.894;2022-10-16T01:30:56;7.45;;;2.63;;
21780;SDS011;52576;53.614;9.894;2022-10-16T01:32:05;6.70;;;3.00;;
21780;SDS011;52576;53.614;9.894;2022-10-16T01:33:17;8.75;;;2.85;;
21780;SDS011;52576;53.614;9.894;2022-10-16T01:34:25;8.45;;;2.53;;
21780;SDS011;52576;53.614;9.894;2022-10-16T01:35:34;9.93;;;2.80;;
21780;SDS011;52576;53.614;9.894;2022-10-16T01:36:41;6.60;;;3.00;;
21780;SDS011;52576;53.614;9.894;2022-10-16T01:37:50;5.43;;;2.38;;
21780;SDS011;52576;53.614;9.894;2022-10-16T01:38:56;6.30;;;2.47;;
21780;SDS011;52576;53.614;9.894;2022-10-16T01:40:04;6.35;;;2.33;;
21780;SDS011;52576;53.614;9.894;2022-10-16T01:41:10;5.63;;;2.58;;
21780;SDS011;52576;53.614;9.894;2022-10-16T01:42:19;4.55;;;2.50;;
21780;SDS011;52576;53.614;9.894;2022-10-16T01:43:27;7.45;;;2.38;;
21780;SDS011;52576;53.614;9.894;2022-10-16T01:44:35;7.22;;;2.50;;
21780;SDS011;52576;53.614;9.894;2022-10-16T01:45:39;6.80;;;2.72;;
21780;SDS011;52576;53.614;9.894;2022-10-16T01:46:44;8.18;;;2.90;;
21780;SDS011;52576;53.614;9.894;2022-10-16T01:47:50;7.88;;;2.63;;
21780;SDS011;52576;53.614;9.894;2022-10-16T01:48:55;5.57;;;2.50;;
21780;SDS011;52576;53.614;9.894;2022-10-16T01:49:58;6.78;;;2.17;;
21780;SDS011;52576;53.614;9.894;2022-10-16T01:51:04;7.18;;;2.50;;
21780;SDS011;52576;53.614;9.894;2022-10-16T01:52:11;9.07;;;2.80;;
21780;SDS011;52576;53.614;9.894;2022-10-16T01:53:17;9.07;;;2.08;;
21780;SDS011;52576;53.614;9.894;2022-10-16T01:54:19;8.15;;;2.30;;
21780;SDS011;52576;53.614;9.894;2022-10-16T01:55:25;6.63;;;2.55;;
21780;SDS011;52576;53.614;9.894;2022-10-16T01:56:30;7.10;;;2.40;;
21780;SDS011;52576;53.614;9.894;2022-10-16T01:57:35;4.22;;;2.20;;
21780;SDS011;52576;53.614;9.894;2022-10-16T01:58:43;6.22;;;2.30;;
21780;SDS011;52576;53.614;9.894;2022-10-16T01:59:50;6.13;;;2.40;;
21780;SDS011;52576;53.614;9.894;2022-10-16T02:00:56;7.10;;;2.65;;
21780;SDS011;52576;53.614;9.894;2022-10-16T02:02:00;6.65;;;2.50;;
21780;SDS011;52576;53.614;9.894;2022-10-16T02:03:05;6.47;;;2.33;;
21780;SDS011;52576;53.614;9.894;2022-10-16T02:04:13;4.68;;;2.47;;
21780;SDS011;52576;53.614;9.894;2022-10-16T02:05:21;5.50;;;2.10;;
21780;SDS011;52576;53.614;9.894;2022-10-16T02:06:28;5.35;;;2.20;;
21780;SDS011;52576;53.614;9.894;2022-10-16T02:07:31;6.63;;;2.38;;
21780;SDS011;52576;53.614;9.894;2022-10-16T02:08:34;10.55;;;2.40;;
21780;SDS011;52576;53.614;9.894;2022-10-16T02:09:37;5.60;;;2.15;;
21780;SDS011;52576;53.614;9.894;2022-10-16T02:10:41;9.07;;;2.58;;
21780;SDS011;52576;53.614;9.894;2022-10-16T02:11:43;8.13;;;2.10;;
21780;SDS011;52576;53.614;9.894;2022-10-16T02:12:48;7.35;;;2.50;;
21780;SDS011;52576;53.614;9.894;2022-10-16T02:13:55;5.60;;;2.20;;
21780;SDS011;52576;53.614;9.894;2022-10-16T02:15:04;8.13;;;2.35;;
21780;SDS011;52576;53.614;9.894;2022-10-16T02:16:06;5.55;;;2.42;;
21780;SDS011;52576;53.614;9.894;2022-10-16T02:17:10;7.20;;;2.20;;
21780;SDS011;52576;53.614;9.894;2022-10-16T02:18:13;6.68;;;2.15;;
21780;SDS011;52576;53.614;9.894;2022-10-16T02:19:17;6.75;;;2.30;;
21780;SDS011;52576;53.614;9.894;2022-10-16T02:20:27;4.25;;;2.30;;
21780;SDS011;52576;53.614;9.894;2022-10-16T02:21:36;7.53;;;2.08;;
21780;SDS011;52576;53.614;9.894;2022-10-16T02:22:45;6.88;;;3.83;;
21780;SDS011;52576;53.614;9.894;2022-10-16T02:23:55;8.15;;;3.40;;
21780;SDS011;52576;53.614;9.894;2022-10-16T02:25:05;5.70;;;2.30;;
21780;SDS011;52576;53.614;9.894;2022-10-16T02:26:13;6.80;;;2.10;;
21780;SDS011;52576;53.614;9.894;2022-10-16T02:27:19;6.05;;;2.03;;
21780;SDS011;52576;53.614;9.894;2022-10-16T02:28:29;6.35;;;2.08;;
21780;SDS011;52576;53.614;9.894;2022-10-16T02:29:40;5.32;;;2.00;;
21780;SDS011;52576;53.614;9.894;2022-10-16T02:30:50;5.65;;;2.20;;
21780;SDS011;52576;53.614;9.894;2022-10-16T02:31:57;3.92;;;2.20;;
21780;SDS011;52576;53.614;9.894;2022-10-16T02:33:05;6.57;;;2.40;;
21780;SDS011;52576;53.614;9.894;2022-10-16T02:34:10;4.97;;;2.05;;
21780;SDS011;52576;53.614;9.894;2022-10-16T02:35:17;6.15;;;1.88;;
21780;SDS011;52576;53.614;9.894;2022-10-16T02:36:21;7.05;;;2.38;;
21780;SDS011;52576;53.614;9.894;2022-10-16T02:37:25;6.30;;;1.85;;
21780;SDS011;52576;53.614;9.894;2022-10-16T02:38:29;4.43;;;1.80;;
21780;SDS011;52576;53.614;9.894;2022-10-16T02:39:33;3.95;;;2.00;;
21780;SDS011;52576;53.614;9.894;2022-10-16T02:40:36;6.57;;;1.85;;
21780;SDS011;52576;53.614;9.894;2022-10-16T02:41:39;5.88;;;2.10;;
21780;SDS011;52576;53.614;9.894;2022-10-16T02:42:41;5.75;;;1.77;;
21780;SDS011;52576;53.614;9.894;2022-10-16T02:43:44;6.85;;;1.75;;
21780;SDS011;52576;53.614;9.894;2022-10-16T02:44:47;6.07;;;1.90;;
21780;SDS011;52576;53.614;9.894;2022-10-16T02:45:50;6.55;;;1.98;;
21780;SDS011;52576;53.614;9.894;2022-10-16T02:46:52;15.05;;;1.98;;
21780;SDS011;52576;53.614;9.894;2022-10-16T02:47:56;5.47;;;1.80;;
21780;SDS011;52576;53.614;9.894;2022-10-16T02:48:58;4.95;;;2.20;;
21780;SDS011;52576;53.614;9.894;2022-10-16T02:50:01;5.13;;;1.92;;
21780;SDS011;52576;53.614;9.894;2022-10-16T02:51:03;9.68;;;1.92;;
21780;SDS011;52576;53.614;9.894;2022-10-16T02:52:06;4.45;;;1.70;;
21780;SDS011;52576;53.614;9.894;2022-10-16T02:53:08;7.75;;;2.45;;
21780;SDS011;52576;53.614;9.894;2022-10-16T02:54:11;5.97;;;2.13;;
21780;SDS011;52576;53.614;9.894;2022-10-16T02:55:14;6.28;;;1.83;;
21780;SDS011;52576;53.614;9.894;2022-10-16T02:56:17;7.93;;;2.00;;
21780;SDS011;52576;53.614;9.894;2022-10-16T02:57:20;5.72;;;1.83;;
21780;SDS011;52576;53.614;9.894;2022-10-16T02:58:23;6.13;;;2.10;;
21780;SDS011;52576;53.614;9.894;2022-10-16T02:59:25;6.95;;;1.83;;
21780;SDS011;52576;53.614;9.894;2022-10-16T03:00:29;5.20;;;1.83;;
21780;SDS011;52576;53.614;9.894;2022-10-16T03:01:32;6.28;;;1.98;;
21780;SDS011;52576;53.614;9.894;2022-10-16T03:02:37;4.70;;;1.70;;
21780;SDS011;52576;53.614;9.894;2022-10-16T03:03:39;5.25;;;1.88;;
21780;SDS011;52576;53.614;9.894;2022-10-16T03:04:42;5.30;;;1.80;;
21780;SDS011;52576;53.614;9.894;2022-10-16T03:05:44;6.03;;;1.60;;
21780;SDS011;52576;53.614;9.894;2022-10-16T03:06:47;3.47;;;1.55;;
21780;SDS011;52576;53.614;9.894;2022-10-16T03:07:49;7.80;;;1.88;;
21780;SDS011;52576;53.614;9.894;2022-10-16T03:08:54;5.15;;;2.00;;
21780;SDS011;52576;53.614;9.894;2022-10-16T03:09:55;4.68;;;1.50;;
21780;SDS011;52576;53.614;9.894;2022-10-16T03:11:01;7.30;;;1.98;;
21780;SDS011;52576;53.614;9.894;2022-10-16T03:12:03;6.50;;;1.60;;
21780;SDS011;52576;53.614;9.894;2022-10-16T03:13:06;6.30;;;1.80;;
21780;SDS011;52576;53.614;9.894;2022-10-16T03:14:08;3.38;;;1.58;;
21780;SDS011;52576;53.614;9.894;2022-10-16T03:15:11;3.65;;;1.52;;
21780;SDS011;52576;53.614;9.894;2022-10-16T03:16:15;8.18;;;2.00;;
21780;SDS011;52576;53.614;9.894;2022-10-16T03:17:18;4.10;;;1.75;;
21780;SDS011;52576;53.614;9.894;2022-10-16T03:18:20;5.50;;;1.80;;
21780;SDS011;52576;53.614;9.894;2022-10-16T03:19:23;5.07;;;1.90;;
21780;SDS011;52576;53.614;9.894;2022-10-16T03:20:26;3.72;;;1.65;;
21780;SDS011;52576;53.614;9.894;2022-10-16T03:21:29;6.28;;;1.80;;
21780;SDS011;52576;53.614;9.894;2022-10-16T03:22:31;9.38;;;2.08;;
21780;SDS011;52576;53.614;9.894;2022-10-16T03:23:34;4.90;;;1.60;;
21780;SDS011;52576;53.614;9.894;2022-10-16T03:24:36;3.75;;;1.63;;
21780;SDS011;52576;53.614;9.894;2022-10-16T03:25:39;4.28;;;1.67;;
21780;SDS011;52576;53.614;9.894;2022-10-16T03:26:41;5.68;;;1.65;;
21780;SDS011;52576;53.614;9.894;2022-10-16T03:27:44;3.78;;;1.70;;
21780;SDS011;52576;53.614;9.894;2022-10-16T03:28:46;4.50;;;1.63;;
21780;SDS011;52576;53.614;9.894;2022-10-16T03:29:49;6.22;;;1.95;;
21780;SDS011;52576;53.614;9.894;2022-10-16T03:30:51;5.13;;;1.65;;
21780;SDS011;52576;53.614;9.894;2022-10-16T03:31:55;5.20;;;1.80;;
21780;SDS011;52576;53.614;9.894;2022-10-16T03:32:57;7.25;;;1.95;;
21780;SDS011;52576;53.614;9.894;2022-10-16T03:35:10;3.80;;;1.80;;
21780;SDS011;52576;53.614;9.894;2022-10-16T03:36:13;6.00;;;2.00;;
21780;SDS011;52576;53.614;9.894;2022-10-16T03:37:16;6.38;;;1.80;;
21780;SDS011;52576;53.614;9.894;2022-10-16T03:38:18;5.30;;;1.73;;
21780;SDS011;52576;53.614;9.894;2022-10-16T03:39:21;7.90;;;1.90;;
21780;SDS011;52576;53.614;9.894;2022-10-16T03:40:23;7.32;;;1.85;;
21780;SDS011;52576;53.614;9.894;2022-10-16T03:41:26;4.43;;;1.90;;
21780;SDS011;52576;53.614;9.894;2022-10-16T03:42:28;4.95;;;1.92;;
21780;SDS011;52576;53.614;9.894;2022-10-16T03:43:31;5.53;;;1.98;;
21780;SDS011;52576;53.614;9.894;2022-10-16T03:44:33;3.95;;;1.70;;
21780;SDS011;52576;53.614;9.894;2022-10-16T03:45:36;4.55;;;1.70;;
21780;SDS011;52576;53.614;9.894;2022-10-16T03:46:38;7.15;;;2.03;;
21780;SDS011;52576;53.614;9.894;2022-10-16T03:47:42;4.78;;;1.75;;
21780;SDS011;52576;53.614;9.894;2022-10-16T03:48:44;4.03;;;1.63;;
21780;SDS011;52576;53.614;9.894;2022-10-16T03:49:47;4.85;;;1.77;;
21780;SDS011;52576;53.614;9.894;2022-10-16T03:50:49;4.55;;;1.83;;
21780;SDS011;52576;53.614;9.894;2022-10-16T03:51:53;3.65;;;1.67;;
21780;SDS011;52576;53.614;9.894;2022-10-16T03:52:55;5.80;;;2.28;;
21780;SDS011;52576;53.614;9.894;2022-10-16T03:53:58;9.10;;;2.00;;
21780;SDS011;52576;53.614;9.894;2022-10-16T03:55:00;8.45;;;1.88;;
21780;SDS011;52576;53.614;9.894;2022-10-16T03:56:03;8.35;;;1.98;;
21780;SDS011;52576;53.614;9.894;2022-10-16T03:57:05;4.80;;;2.10;;
21780;SDS011;52576;53.614;9.894;2022-10-16T03:58:08;7.03;;;1.65;;
21780;SDS011;52576;53.614;9.894;2022-10-16T03:59:10;9.23;;;2.10;;
21780;SDS011;52576;53.614;9.894;2022-10-16T04:00:13;5.38;;;1.63;;
21780;SDS011;52576;53.614;9.894;2022-10-16T04:01:15;6.65;;;1.80;;
21780;SDS011;52576;53.614;9.894;2022-10-16T04:02:18;7.38;;;2.00;;
21780;SDS011;52576;53.614;9.894;2022-10-16T04:03:21;5.45;;;1.80;;
21780;SDS011;52576;53.614;9.894;2022-10-16T04:04:25;3.33;;;1.60;;
21780;SDS011;52576;53.614;9.894;2022-10-16T04:05:26;5.75;;;2.22;;
21780;SDS011;52576;53.614;9.894;2022-10-16T04:06:30;7.53;;;2.45;;
21780;SDS011;52576;53.614;9.894;2022-10-16T04:07:32;7.13;;;1.90;;
21780;SDS011;52576;53.614;9.894;2022-10-16T04:08:35;4.38;;;1.60;;
21780;SDS011;52576;53.614;9.894;2022-10-16T04:09:38;5.72;;;1.73;;
21780;SDS011;52576;53.614;9.894;2022-10-16T04:10:42;9.77;;;2.10;;
21780;SDS011;52576;53.614;9.894;2022-10-16T04:11:44;6.70;;;1.75;;
21780;SDS011;52576;53.614;9.894;2022-10-16T04:12:47;6.25;;;1.98;;
21780;SDS011;52576;53.614;9.894;2022-10-16T04:13:48;5.60;;;1.70;;
21780;SDS011;52576;53.614;9.894;2022-10-16T04:14:51;5.05;;;1.77;;
21780;SDS011;52576;53.614;9.894;2022-10-16T04:15:53;6.00;;;1.63;;
21780;SDS011;52576;53.614;9.894;2022-10-16T04:16:56;6.93;;;2.05;;
21780;SDS011;52576;53.614;9.894;2022-10-16T04:17:58;3.78;;;1.67;;
21780;SDS011;52576;53.614;9.894;2022-10-16T04:19:02;6.03;;;1.70;;
21780;SDS011;52576;53.614;9.894;2022-10-16T04:20:05;3.90;;;1.73;;
21780;SDS011;52576;53.614;9.894;2022-10-16T04:21:08;6.97;;;1.75;;
21780;SDS011;52576;53.614;9.894;2022-10-16T04:22:10;6.22;;;1.60;;
21780;SDS011;52576;53.614;9.894;2022-10-16T04:23:13;4.88;;;1.60;;
21780;SDS011;52576;53.614;9.894;2022-10-16T04:24:15;3.45;;;1.60;;
21780;SDS011;52576;53.614;9.894;2022-10-16T04:25:18;5.40;;;2.00;;
21780;SDS011;52576;53.614;9.894;2022-10-16T04:26:20;9.43;;;1.90;;
21780;SDS011;52576;53.614;9.894;2022-10-16T04:27:23;8.35;;;1.90;;
21780;SDS011;52576;53.614;9.894;2022-10-16T04:28:26;4.78;;;1.80;;
21780;SDS011;52576;53.614;9.894;2022-10-16T04:29:29;5.72;;;1.83;;
21780;SDS011;52576;53.614;9.894;2022-10-16T04:30:31;8.32;;;1.90;;
21780;SDS011;52576;53.614;9.894;2022-10-16T04:31:34;12.20;;;1.88;;
21780;SDS011;52576;53.614;9.894;2022-10-16T04:32:36;2.53;;;1.55;;
21780;SDS011;52576;53.614;9.894;2022-10-16T04:33:41;6.55;;;2.15;;
21780;SDS011;52576;53.614;9.894;2022-10-16T04:34:45;4.55;;;1.70;;
21780;SDS011;52576;53.614;9.894;2022-10-16T04:35:48;4.57;;;1.70;;
21780;SDS011;52576;53.614;9.894;2022-10-16T04:36:50;4.30;;;1.65;;
21780;SDS011;52576;53.614;9.894;2022-10-16T04:37:53;2.97;;;1.65;;
21780;SDS011;52576;53.614;9.894;2022-10-16T04:38:56;5.97;;;1.70;;
21780;SDS011;52576;53.614;9.894;2022-10-16T04:39:58;10.32;;;1.75;;
21780;SDS011;52576;53.614;9.894;2022-10-16T04:41:01;5.25;;;1.80;;
21780;SDS011;52576;53.614;9.894;2022-10-16T04:42:03;4.15;;;1.50;;
21780;SDS011;52576;53.614;9.894;2022-10-16T04:43:06;7.80;;;1.77;;
21780;SDS011;52576;53.614;9.894;2022-10-16T04:44:08;5.28;;;1.75;;
21780;SDS011;52576;53.614;9.894;2022-10-16T04:45:11;6.20;;;1.73;;
21780;SDS011;52576;53.614;9.894;2022-10-16T04:46:17;3.53;;;1.65;;
21780;SDS011;52576;53.614;9.894;2022-10-16T04:47:20;5.05;;;1.77;;
21780;SDS011;52576;53.614;9.894;2022-10-16T04:48:22;5.10;;;1.58;;
21780;SDS011;52576;53.614;9.894;2022-10-16T04:49:25;4.72;;;1.63;;
21780;SDS011;52576;53.614;9.894;2022-10-16T04:50:28;7.72;;;1.92;;
21780;SDS011;52576;53.614;9.894;2022-10-16T04:51:39;4.55;;;1.83;;
21780;SDS011;52576;53.614;9.894;2022-10-16T04:52:42;8.95;;;2.20;;
21780;SDS011;52576;53.614;9.894;2022-10-16T04:53:43;5.05;;;1.90;;
21780;SDS011;52576;53.614;9.894;2022-10-16T04:54:46;4.63;;;1.80;;
21780;SDS011;52576;53.614;9.894;2022-10-16T04:55:51;6.15;;;1.63;;
21780;SDS011;52576;53.614;9.894;2022-10-16T04:56:53;7.13;;;2.00;;
21780;SDS011;52576;53.614;9.894;2022-10-16T04:57:56;6.15;;;1.85;;
21780;SDS011;52576;53.614;9.894;2022-10-16T04:58:58;5.70;;;1.73;;
21780;SDS011;52576;53.614;9.894;2022-10-16T05:00:01;7.25;;;1.80;;
21780;SDS011;52576;53.614;9.894;2022-10-16T05:01:04;6.40;;;2.00;;
21780;SDS011;52576;53.614;9.894;2022-10-16T05:02:07;4.22;;;1.95;;
21780;SDS011;52576;53.614;9.894;2022-10-16T05:03:09;6.97;;;2.10;;
21780;SDS011;52576;53.614;9.894;2022-10-16T05:04:12;3.70;;;1.90;;
21780;SDS011;52576;53.614;9.894;2022-10-16T05:05:16;10.45;;;2.33;;
21780;SDS011;52576;53.614;9.894;2022-10-16T05:06:22;6.43;;;1.80;;
21780;SDS011;52576;53.614;9.894;2022-10-16T05:07:24;6.00;;;2.50;;
21780;SDS011;52576;53.614;9.894;2022-10-16T05:08:27;5.72;;;2.25;;
21780;SDS011;52576;53.614;9.894;2022-10-16T05:09:29;7.25;;;2.40;;
21780;SDS011;52576;53.614;9.894;2022-10-16T05:10:32;5.32;;;2.38;;
21780;SDS011;52576;53.614;9.894;2022-10-16T05:11:34;4.60;;;2.72;;
21780;SDS011;52576;53.614;9.894;2022-10-16T05:12:37;7.03;;;2.40;;
21780;SDS011;52576;53.614;9.894;2022-10-16T05:13:39;7.45;;;2.60;;
21780;SDS011;52576;53.614;9.894;2022-10-16T05:14:42;6.07;;;2.83;;
21780;SDS011;52576;53.614;9.894;2022-10-16T05:15:46;6.05;;;2.70;;
21780;SDS011;52576;53.614;9.894;2022-10-16T05:16:49;7.65;;;2.45;;
21780;SDS011;52576;53.614;9.894;2022-10-16T05:17:52;11.23;;;2.50;;
21780;SDS011;52576;53.614;9.894;2022-10-16T05:18:56;6.05;;;2.45;;
21780;SDS011;52576;53.614;9.894;2022-10-16T05:20:18;8.13;;;2.83;;
21780;SDS011;52576;53.614;9.894;2022-10-16T05:21:22;7.45;;;2.60;;
21780;SDS011;52576;53.614;9.894;2022-10-16T05:22:24;6.70;;;2.38;;
21780;SDS011;52576;53.614;9.894;2022-10-16T05:23:27;9.60;;;2.80;;
21780;SDS011;52576;53.614;9.894;2022-10-16T05:24:29;8.00;;;2.70;;
21780;SDS011;52576;53.614;9.894;2022-10-16T05:25:32;8.02;;;2.72;;
21780;SDS011;52576;53.614;9.894;2022-10-16T05:26:34;7.10;;;2.55;;
21780;SDS011;52576;53.614;9.894;2022-10-16T05:27:36;9.18;;;2.83;;
21780;SDS011;52576;53.614;9.894;2022-10-16T05:28:39;9.68;;;3.17;;
21780;SDS011;52576;53.614;9.894;2022-10-16T05:29:42;7.93;;;2.60;;
21780;SDS011;52576;53.614;9.894;2022-10-16T05:30:44;12.75;;;3.47;;
21780;SDS011;52576;53.614;9.894;2022-10-16T05:31:49;7.35;;;3.00;;
21780;SDS011;52576;53.614;9.894;2022-10-16T05:32:52;7.28;;;3.20;;
21780;SDS011;52576;53.614;9.894;2022-10-16T05:33:57;8.82;;;2.80;;
21780;SDS011;52576;53.614;9.894;2022-10-16T05:35:00;6.80;;;3.25;;
21780;SDS011;52576;53.614;9.894;2022-10-16T05:36:03;7.70;;;3.30;;
21780;SDS011;52576;53.614;9.894;2022-10-16T05:37:08;6.65;;;3.10;;
21780;SDS011;52576;53.614;9.894;2022-10-16T05:38:11;9.45;;;3.33;;
21780;SDS011;52576;53.614;9.894;2022-10-16T05:39:13;6.85;;;3.17;;
21780;SDS011;52576;53.614;9.894;2022-10-16T05:40:17;7.50;;;3.00;;
21780;SDS011;52576;53.614;9.894;2022-10-16T05:41:19;11.60;;;3.55;;
21780;SDS011;52576;53.614;9.894;2022-10-16T05:42:23;11.48;;;3.42;;
21780;SDS011;52576;53.614;9.894;2022-10-16T05:43:26;7.53;;;3.13;;
21780;SDS011;52576;53.614;9.894;2022-10-16T05:44:29;9.57;;;3.47;;
21780;SDS011;52576;53.614;9.894;2022-10-16T05:45:32;8.85;;;3.58;;
21780;SDS011;52576;53.614;9.894;2022-10-16T05:46:34;6.22;;;3.38;;
21780;SDS011;52576;53.614;9.894;2022-10-16T05:47:37;10.00;;;3.70;;
21780;SDS011;52576;53.614;9.894;2022-10-16T05:48:40;11.82;;;3.25;;
21780;SDS011;52576;53.614;9.894;2022-10-16T05:49:43;9.15;;;3.55;;
21780;SDS011;52576;53.614;9.894;2022-10-16T05:50:44;8.57;;;3.20;;
21780;SDS011;52576;53.614;9.894;2022-10-16T05:51:47;7.85;;;3.70;;
21780;SDS011;52576;53.614;9.894;2022-10-16T05:52:51;8.93;;;3.30;;
21780;SDS011;52576;53.614;9.894;2022-10-16T05:53:54;9.88;;;3.92;;
21780;SDS011;52576;53.614;9.894;2022-10-16T05:54:55;7.15;;;3.30;;
21780;SDS011;52576;53.614;9.894;2022-10-16T05:55:58;9.38;;;3.47;;
21780;SDS011;52576;53.614;9.894;2022-10-16T05:57:01;8.15;;;3.30;;
21780;SDS011;52576;53.614;9.894;2022-10-16T05:58:07;10.07;;;3.10;;
21780;SDS011;52576;53.614;9.894;2022-10-16T05:59:08;10.27;;;3.72;;
21780;SDS011;52576;53.614;9.894;2022-10-16T06:00:12;9.00;;;3.35;;
21780;SDS011;52576;53.614;9.894;2022-10-16T06:01:14;8.63;;;3.00;;
21780;SDS011;52576;53.614;9.894;2022-10-16T06:02:18;9.27;;;3.38;;
21780;SDS011;52576;53.614;9.894;2022-10-16T06:03:21;8.90;;;3.50;;
21780;SDS011;52576;53.614;9.894;2022-10-16T06:04:24;8.27;;;3.10;;
21780;SDS011;52576;53.614;9.894;2022-10-16T06:05:26;11.93;;;3.30;;
21780;SDS011;52576;53.614;9.894;2022-10-16T06:06:29;6.38;;;3.13;;
21780;SDS011;52576;53.614;9.894;2022-10-16T06:07:33;7.78;;;3.10;;
21780;SDS011;52576;53.614;9.894;2022-10-16T06:08:38;11.55;;;3.10;;
21780;SDS011;52576;53.614;9.894;2022-10-16T06:09:40;5.95;;;3.13;;
21780;SDS011;52576;53.614;9.894;2022-10-16T06:10:43;7.20;;;3.22;;
21780;SDS011;52576;53.614;9.894;2022-10-16T06:11:46;8.15;;;2.90;;
21780;SDS011;52576;53.614;9.894;2022-10-16T06:12:49;7.50;;;2.70;;
21780;SDS011;52576;53.614;9.894;2022-10-16T06:13:51;9.55;;;3.33;;
21780;SDS011;52576;53.614;9.894;2022-10-16T06:14:55;7.22;;;3.03;;
21780;SDS011;52576;53.614;9.894;2022-10-16T06:15:58;8.73;;;3.40;;
21780;SDS011;52576;53.614;9.894;2022-10-16T06:17:01;6.20;;;3.50;;
21780;SDS011;52576;53.614;9.894;2022-10-16T06:18:03;12.50;;;3.15;;
21780;SDS011;52576;53.614;9.894;2022-10-16T06:19:06;9.05;;;2.83;;
21780;SDS011;52576;53.614;9.894;2022-10-16T06:20:09;8.93;;;3.00;;
21780;SDS011;52576;53.614;9.894;2022-10-16T06:21:14;7.05;;;2.65;;
21780;SDS011;52576;53.614;9.894;2022-10-16T06:22:19;6.00;;;2.63;;
21780;SDS011;52576;53.614;9.894;2022-10-16T06:23:22;6.20;;;2.70;;
21780;SDS011;52576;53.614;9.894;2022-10-16T06:24:25;11.23;;;3.15;;
21780;SDS011;52576;53.614;9.894;2022-10-16T06:25:28;10.23;;;2.78;;
21780;SDS011;52576;53.614;9.894;2022-10-16T06:26:30;6.80;;;2.83;;
21780;SDS011;52576;53.614;9.894;2022-10-16T06:27:34;10.68;;;2.88;;
21780;SDS011;52576;53.614;9.894;2022-10-16T06:28:35;10.65;;;3.03;;
21780;SDS011;52576;53.614;9.894;2022-10-16T06:29:39;8.35;;;2.95;;
21780;SDS011;52576;53.614;9.894;2022-10-16T06:30:41;5.35;;;2.50;;